sensor_id;sensor_type;location;lat;lon;timestamp;temperature;humidity
5881;DHT22;2966;52.598;10.928;2022-12-18T00:02:04;-7.30;99.90
5881;DHT22;2966;52.598;10.928;2022-12-18T00:04:31;-7.30;99.90
5881;DHT22;2966;52.598;10.928;2022-12-18T00:06:58;-7.30;99.90
5881;DHT22;2966;52.598;10.928;2022-12-18T00:09:25;-7.40;99.90
5881;DHT22;2966;52.598;10.928;2022-12-18T00:11:52;-7.30;99.90
5881;DHT22;2966;52.598;10.928;2022-12-18T00:14:20;-7.40;99.90
5881;DHT22;2966;52.598;10.928;2022-12-18T00:16:47;-7.30;99.90
5881;DHT22;2966;52.598;10.928;2022-12-18T00:19:14;-7.30;99.90
5881;DHT22;2966;52.598;10.928;2022-12-18T00:21:42;-7.40;99.90
5881;DHT22;2966;52.598;10.928;2022-12-18T00:24:09;-7.40;99.90
5881;DHT22;2966;52.598;10.928;2022-12-18T00:26:37;-7.50;99.90
5881;DHT22;2966;52.598;10.928;2022-12-18T00:29:06;-7.50;99.90
5881;DHT22;2966;52.598;10.928;2022-12-18T00:31:35;-7.50;99.90
5881;DHT22;2966;52.598;10.928;2022-12-18T00:34:02;-7.60;99.90
5881;DHT22;2966;52.598;10.928;2022-12-18T00:36:31;-7.60;99.90
5881;DHT22;2966;52.598;10.928;2022-12-18T00:39:00;-7.50;99.90
5881;DHT22;2966;52.598;10.928;2022-12-18T00:41:28;-7.50;99.90
5881;DHT22;2966;52.598;10.928;2022-12-18T00:44:13;-7.60;99.90
5881;DHT22;2966;52.598;10.928;2022-12-18T00:46:42;-7.50;99.90
5881;DHT22;2966;52.598;10.928;2022-12-18T00:49:09;-7.60;99.90
5881;DHT22;2966;52.598;10.928;2022-12-18T00:51:36;-7.60;99.90
5881;DHT22;2966;52.598;10.928;2022-12-18T00:54:03;-7.60;99.90
5881;DHT22;2966;52.598;10.928;2022-12-18T00:56:30;-7.60;99.90
5881;DHT22;2966;52.598;10.928;2022-12-18T00:58:57;-7.70;99.90
5881;DHT22;2966;52.598;10.928;2022-12-18T01:01:24;-7.70;99.90
5881;DHT22;2966;52.598;10.928;2022-12-18T01:03:52;-7.70;99.90
5881;DHT22;2966;52.598;10.928;2022-12-18T01:06:19;-7.70;99.90
5881;DHT22;2966;52.598;10.928;2022-12-18T01:08:46;-7.70;99.90
5881;DHT22;2966;52.598;10.928;2022-12-18T01:11:15;-7.70;99.90
5881;DHT22;2966;52.598;10.928;2022-12-18T01:13:43;-7.60;99.90
5881;DHT22;2966;52.598;10.928;2022-12-18T01:16:12;-7.60;99.90
5881;DHT22;2966;52.598;10.928;2022-12-18T01:18:39;-7.70;99.90
5881;DHT22;2966;52.598;10.928;2022-12-18T01:21:08;-7.70;99.90
5881;DHT22;2966;52.598;10.928;2022-12-18T01:23:36;-7.70;99.90
5881;DHT22;2966;52.598;10.928;2022-12-18T01:26:07;-7.70;99.90
5881;DHT22;2966;52.598;10.928;2022-12-18T01:28:34;-7.70;99.90
5881;DHT22;2966;52.598;10.928;2022-12-18T01:31:17;-7.70;99.90
5881;DHT22;2966;52.598;10.928;2022-12-18T01:33:48;-7.70;99.90
5881;DHT22;2966;52.598;10.928;2022-12-18T01:36:18;-7.70;99.90
5881;DHT22;2966;52.598;10.928;2022-12-18T01:38:46;-7.70;99.90
5881;DHT22;2966;52.598;10.928;2022-12-18T01:41:15;-7.70;99.90
5881;DHT22;2966;52.598;10.928;2022-12-18T01:43:51;-7.70;99.90
5881;DHT22;2966;52.598;10.928;2022-12-18T01:46:20;-7.70;99.90
5881;DHT22;2966;52.598;10.928;2022-12-18T01:48:49;-7.70;99.90
5881;DHT22;2966;52.598;10.928;2022-12-18T01:51:18;-7.70;99.90
5881;DHT22;2966;52.598;10.928;2022-12-18T01:53:46;-7.70;99.90
5881;DHT22;2966;52.598;10.928;2022-12-18T01:56:15;-7.70;99.90
5881;DHT22;2966;52.598;10.928;2022-12-18T01:58:50;-7.80;99.90
5881;DHT22;2966;52.598;10.928;2022-12-18T02:01:20;-7.80;99.90
5881;DHT22;2966;52.598;10.928;2022-12-18T02:03:48;-7.90;99.90
5881;DHT22;2966;52.598;10.928;2022-12-18T02:06:20;-7.80;99.90
5881;DHT22;2966;52.598;10.928;2022-12-18T02:08:55;-7.80;99.90
5881;DHT22;2966;52.598;10.928;2022-12-18T02:11:34;-7.80;99.90
5881;DHT22;2966;52.598;10.928;2022-12-18T02:14:12;-7.80;99.90
5881;DHT22;2966;52.598;10.928;2022-12-18T02:16:45;-7.90;99.90
5881;DHT22;2966;52.598;10.928;2022-12-18T02:22:10;-7.90;99.90
5881;DHT22;2966;52.598;10.928;2022-12-18T02:24:47;-7.90;99.90
5881;DHT22;2966;52.598;10.928;2022-12-18T02:27:22;-7.90;99.90
5881;DHT22;2966;52.598;10.928;2022-12-18T02:29:51;-7.90;99.90
5881;DHT22;2966;52.598;10.928;2022-12-18T02:32:22;-7.80;99.90
5881;DHT22;2966;52.598;10.928;2022-12-18T02:34:52;-7.90;99.90
5881;DHT22;2966;52.598;10.928;2022-12-18T02:37:21;-7.90;99.90
5881;DHT22;2966;52.598;10.928;2022-12-18T02:39:49;-7.90;99.90
5881;DHT22;2966;52.598;10.928;2022-12-18T02:42:18;-8.00;99.90
5881;DHT22;2966;52.598;10.928;2022-12-18T02:44:49;-8.00;99.90
5881;DHT22;2966;52.598;10.928;2022-12-18T02:47:17;-8.00;99.90
5881;DHT22;2966;52.598;10.928;2022-12-18T02:49:53;-8.00;99.90
5881;DHT22;2966;52.598;10.928;2022-12-18T02:52:28;-8.00;99.90
5881;DHT22;2966;52.598;10.928;2022-12-18T02:55:03;-8.10;99.90
5881;DHT22;2966;52.598;10.928;2022-12-18T02:57:34;-8.10;99.90
5881;DHT22;2966;52.598;10.928;2022-12-18T03:00:07;-8.10;99.90
5881;DHT22;2966;52.598;10.928;2022-12-18T03:02:39;-8.10;99.90
5881;DHT22;2966;52.598;10.928;2022-12-18T03:05:12;-8.10;99.90
5881;DHT22;2966;52.598;10.928;2022-12-18T03:07:44;-8.20;99.90
5881;DHT22;2966;52.598;10.928;2022-12-18T03:10:15;-8.20;99.90
5881;DHT22;2966;52.598;10.928;2022-12-18T03:12:46;-8.30;99.90
5881;DHT22;2966;52.598;10.928;2022-12-18T03:15:19;-8.30;99.90
5881;DHT22;2966;52.598;10.928;2022-12-18T03:17:51;-8.30;99.90
5881;DHT22;2966;52.598;10.928;2022-12-18T03:20:20;-8.30;99.90
5881;DHT22;2966;52.598;10.928;2022-12-18T03:22:51;-8.30;99.90
5881;DHT22;2966;52.598;10.928;2022-12-18T03:25:20;-8.20;99.90
5881;DHT22;2966;52.598;10.928;2022-12-18T03:27:52;-8.30;99.90
5881;DHT22;2966;52.598;10.928;2022-12-18T03:30:21;-8.30;99.90
5881;DHT22;2966;52.598;10.928;2022-12-18T03:32:52;-8.30;99.90
5881;DHT22;2966;52.598;10.928;2022-12-18T03:35:22;-8.30;99.90
5881;DHT22;2966;52.598;10.928;2022-12-18T03:37:51;-8.30;99.90
5881;DHT22;2966;52.598;10.928;2022-12-18T03:40:20;-8.20;99.90
5881;DHT22;2966;52.598;10.928;2022-12-18T03:42:51;-8.20;99.90
5881;DHT22;2966;52.598;10.928;2022-12-18T03:45:24;-8.20;99.90
5881;DHT22;2966;52.598;10.928;2022-12-18T03:47:58;-8.20;99.90
5881;DHT22;2966;52.598;10.928;2022-12-18T03:50:34;-8.20;99.90
5881;DHT22;2966;52.598;10.928;2022-12-18T03:53:14;-8.30;99.90
5881;DHT22;2966;52.598;10.928;2022-12-18T03:55:44;-8.30;99.90
5881;DHT22;2966;52.598;10.928;2022-12-18T03:58:13;-8.20;99.90
5881;DHT22;2966;52.598;10.928;2022-12-18T04:00:48;-8.20;99.90
5881;DHT22;2966;52.598;10.928;2022-12-18T04:03:18;-8.20;99.90
5881;DHT22;2966;52.598;10.928;2022-12-18T04:05:48;-8.20;99.90
5881;DHT22;2966;52.598;10.928;2022-12-18T04:08:17;-8.20;99.90
5881;DHT22;2966;52.598;10.928;2022-12-18T04:10:44;-8.20;99.90
5881;DHT22;2966;52.598;10.928;2022-12-18T04:13:11;-8.20;99.90
5881;DHT22;2966;52.598;10.928;2022-12-18T04:15:38;-8.20;99.90
5881;DHT22;2966;52.598;10.928;2022-12-18T04:18:08;-8.20;99.90
5881;DHT22;2966;52.598;10.928;2022-12-18T04:20:34;-8.20;99.90
5881;DHT22;2966;52.598;10.928;2022-12-18T04:23:01;-8.20;99.90
5881;DHT22;2966;52.598;10.928;2022-12-18T04:25:29;-8.30;99.90
5881;DHT22;2966;52.598;10.928;2022-12-18T04:27:56;-8.30;99.90
5881;DHT22;2966;52.598;10.928;2022-12-18T04:30:23;-8.30;99.90
5881;DHT22;2966;52.598;10.928;2022-12-18T04:32:50;-8.30;99.90
5881;DHT22;2966;52.598;10.928;2022-12-18T04:35:18;-8.40;99.90
5881;DHT22;2966;52.598;10.928;2022-12-18T04:37:45;-8.40;99.90
5881;DHT22;2966;52.598;10.928;2022-12-18T04:40:12;-8.40;99.90
5881;DHT22;2966;52.598;10.928;2022-12-18T04:42:39;-8.40;99.90
5881;DHT22;2966;52.598;10.928;2022-12-18T04:45:07;-8.40;99.90
5881;DHT22;2966;52.598;10.928;2022-12-18T04:47:34;-8.40;99.90
5881;DHT22;2966;52.598;10.928;2022-12-18T04:50:01;-8.40;99.90
5881;DHT22;2966;52.598;10.928;2022-12-18T04:52:29;-8.40;99.90
5881;DHT22;2966;52.598;10.928;2022-12-18T04:54:55;-8.40;99.90
5881;DHT22;2966;52.598;10.928;2022-12-18T04:57:22;-8.50;99.90
5881;DHT22;2966;52.598;10.928;2022-12-18T04:59:49;-8.50;99.90
5881;DHT22;2966;52.598;10.928;2022-12-18T05:02:16;-8.50;99.90
5881;DHT22;2966;52.598;10.928;2022-12-18T05:04:43;-8.50;99.90
5881;DHT22;2966;52.598;10.928;2022-12-18T05:07:09;-8.50;99.90
5881;DHT22;2966;52.598;10.928;2022-12-18T05:09:38;-8.50;99.90
5881;DHT22;2966;52.598;10.928;2022-12-18T05:12:05;-8.50;99.90
5881;DHT22;2966;52.598;10.928;2022-12-18T05:14:32;-8.50;99.90
5881;DHT22;2966;52.598;10.928;2022-12-18T05:16:58;-8.60;99.90
5881;DHT22;2966;52.598;10.928;2022-12-18T05:19:25;-8.60;99.90
5881;DHT22;2966;52.598;10.928;2022-12-18T05:21:52;-8.60;99.90
5881;DHT22;2966;52.598;10.928;2022-12-18T05:24:19;-8.50;99.90
5881;DHT22;2966;52.598;10.928;2022-12-18T05:26:47;-8.50;99.90
5881;DHT22;2966;52.598;10.928;2022-12-18T05:29:14;-8.50;99.90
5881;DHT22;2966;52.598;10.928;2022-12-18T05:31:41;-8.50;99.90
5881;DHT22;2966;52.598;10.928;2022-12-18T05:34:08;-8.50;99.90
5881;DHT22;2966;52.598;10.928;2022-12-18T05:36:34;-8.50;99.90
5881;DHT22;2966;52.598;10.928;2022-12-18T05:39:01;-8.50;99.90
5881;DHT22;2966;52.598;10.928;2022-12-18T05:41:28;-8.50;99.90
5881;DHT22;2966;52.598;10.928;2022-12-18T05:43:56;-8.50;99.90
5881;DHT22;2966;52.598;10.928;2022-12-18T05:46:23;-8.50;99.90
5881;DHT22;2966;52.598;10.928;2022-12-18T05:48:51;-8.50;99.90
5881;DHT22;2966;52.598;10.928;2022-12-18T05:51:20;-8.50;99.90
5881;DHT22;2966;52.598;10.928;2022-12-18T05:53:48;-8.50;99.90
5881;DHT22;2966;52.598;10.928;2022-12-18T05:56:18;-8.50;99.90
5881;DHT22;2966;52.598;10.928;2022-12-18T05:58:45;-8.50;99.90
5881;DHT22;2966;52.598;10.928;2022-12-18T06:01:17;-8.60;99.90
5881;DHT22;2966;52.598;10.928;2022-12-18T06:03:44;-8.60;99.90
5881;DHT22;2966;52.598;10.928;2022-12-18T06:06:15;-8.60;99.90
5881;DHT22;2966;52.598;10.928;2022-12-18T06:08:42;-8.60;99.90
5881;DHT22;2966;52.598;10.928;2022-12-18T06:11:09;-8.60;99.90
5881;DHT22;2966;52.598;10.928;2022-12-18T06:13:36;-8.60;99.90
5881;DHT22;2966;52.598;10.928;2022-12-18T06:16:04;-8.60;99.90
5881;DHT22;2966;52.598;10.928;2022-12-18T06:18:32;-8.70;99.90
5881;DHT22;2966;52.598;10.928;2022-12-18T06:21:01;-8.70;99.90
5881;DHT22;2966;52.598;10.928;2022-12-18T06:23:29;-8.70;99.90
5881;DHT22;2966;52.598;10.928;2022-12-18T06:25:56;-8.70;99.90
5881;DHT22;2966;52.598;10.928;2022-12-18T06:28:24;-8.60;99.90
5881;DHT22;2966;52.598;10.928;2022-12-18T06:30:51;-8.60;99.90
5881;DHT22;2966;52.598;10.928;2022-12-18T06:33:19;-8.60;99.90
5881;DHT22;2966;52.598;10.928;2022-12-18T06:35:47;-8.70;99.90
5881;DHT22;2966;52.598;10.928;2022-12-18T06:38:15;-8.70;99.90
5881;DHT22;2966;52.598;10.928;2022-12-18T06:40:43;-8.70;99.90
5881;DHT22;2966;52.598;10.928;2022-12-18T06:43:11;-8.70;99.90
5881;DHT22;2966;52.598;10.928;2022-12-18T06:45:38;-8.70;99.90
5881;DHT22;2966;52.598;10.928;2022-12-18T06:48:05;-8.70;99.90
5881;DHT22;2966;52.598;10.928;2022-12-18T06:50:33;-8.70;99.90
5881;DHT22;2966;52.598;10.928;2022-12-18T06:53:03;-8.70;99.90
5881;DHT22;2966;52.598;10.928;2022-12-18T06:55:30;-8.70;99.90
5881;DHT22;2966;52.598;10.928;2022-12-18T06:57:57;-8.70;99.90
5881;DHT22;2966;52.598;10.928;2022-12-18T07:00:23;-8.60;99.90
5881;DHT22;2966;52.598;10.928;2022-12-18T07:02:50;-8.60;99.90
5881;DHT22;2966;52.598;10.928;2022-12-18T07:05:17;-8.60;99.90
5881;DHT22;2966;52.598;10.928;2022-12-18T07:07:44;-8.70;99.90
5881;DHT22;2966;52.598;10.928;2022-12-18T07:10:12;-8.70;99.90
5881;DHT22;2966;52.598;10.928;2022-12-18T07:12:38;-8.70;99.90
5881;DHT22;2966;52.598;10.928;2022-12-18T07:15:07;-8.70;99.90
5881;DHT22;2966;52.598;10.928;2022-12-18T07:17:35;-8.80;99.90
5881;DHT22;2966;52.598;10.928;2022-12-18T07:20:02;-8.80;99.90
5881;DHT22;2966;52.598;10.928;2022-12-18T07:22:30;-8.80;99.90
5881;DHT22;2966;52.598;10.928;2022-12-18T07:24:58;-8.80;99.90
5881;DHT22;2966;52.598;10.928;2022-12-18T07:27:27;-8.80;99.90
5881;DHT22;2966;52.598;10.928;2022-12-18T07:29:54;-8.80;99.90
5881;DHT22;2966;52.598;10.928;2022-12-18T07:32:22;-8.80;99.90
5881;DHT22;2966;52.598;10.928;2022-12-18T07:34:49;-8.80;99.90
5881;DHT22;2966;52.598;10.928;2022-12-18T07:37:16;-8.80;99.90
5881;DHT22;2966;52.598;10.928;2022-12-18T07:39:46;-8.80;99.90
5881;DHT22;2966;52.598;10.928;2022-12-18T07:42:13;-8.80;99.90
5881;DHT22;2966;52.598;10.928;2022-12-18T07:45:01;-8.80;99.90
5881;DHT22;2966;52.598;10.928;2022-12-18T07:47:30;-8.80;99.90
5881;DHT22;2966;52.598;10.928;2022-12-18T07:49:57;-8.80;99.90
5881;DHT22;2966;52.598;10.928;2022-12-18T07:52:25;-8.80;99.90
5881;DHT22;2966;52.598;10.928;2022-12-18T07:55:16;-8.80;99.90
5881;DHT22;2966;52.598;10.928;2022-12-18T07:57:43;-8.70;99.90
5881;DHT22;2966;52.598;10.928;2022-12-18T08:00:13;-8.70;99.90
5881;DHT22;2966;52.598;10.928;2022-12-18T08:02:40;-8.70;99.90
5881;DHT22;2966;52.598;10.928;2022-12-18T08:05:08;-8.70;99.90
5881;DHT22;2966;52.598;10.928;2022-12-18T08:07:35;-8.70;99.90
5881;DHT22;2966;52.598;10.928;2022-12-18T08:10:02;-8.60;99.90
5881;DHT22;2966;52.598;10.928;2022-12-18T08:12:28;-8.60;99.90
5881;DHT22;2966;52.598;10.928;2022-12-18T08:14:55;-8.60;99.90
5881;DHT22;2966;52.598;10.928;2022-12-18T08:17:23;-8.50;99.90
5881;DHT22;2966;52.598;10.928;2022-12-18T08:19:50;-8.50;99.90
5881;DHT22;2966;52.598;10.928;2022-12-18T08:22:17;-8.50;99.90
5881;DHT22;2966;52.598;10.928;2022-12-18T08:24:44;-8.40;99.90
5881;DHT22;2966;52.598;10.928;2022-12-18T08:27:11;-8.40;99.90
5881;DHT22;2966;52.598;10.928;2022-12-18T08:29:38;-8.30;99.90
5881;DHT22;2966;52.598;10.928;2022-12-18T08:32:05;-8.30;99.90
5881;DHT22;2966;52.598;10.928;2022-12-18T08:34:33;-8.20;99.90
5881;DHT22;2966;52.598;10.928;2022-12-18T08:37:01;-8.20;99.90
5881;DHT22;2966;52.598;10.928;2022-12-18T08:39:27;-8.10;99.90
5881;DHT22;2966;52.598;10.928;2022-12-18T08:41:54;-8.10;99.90
5881;DHT22;2966;52.598;10.928;2022-12-18T08:44:38;-8.00;99.90
5881;DHT22;2966;52.598;10.928;2022-12-18T08:47:06;-7.90;99.90
5881;DHT22;2966;52.598;10.928;2022-12-18T08:49:35;-7.90;99.90
5881;DHT22;2966;52.598;10.928;2022-12-18T08:52:02;-7.80;99.90
5881;DHT22;2966;52.598;10.928;2022-12-18T08:54:29;-7.70;99.90
5881;DHT22;2966;52.598;10.928;2022-12-18T08:56:56;-7.60;99.90
5881;DHT22;2966;52.598;10.928;2022-12-18T08:59:23;-7.50;99.90
5881;DHT22;2966;52.598;10.928;2022-12-18T09:01:50;-7.40;99.90
5881;DHT22;2966;52.598;10.928;2022-12-18T09:04:17;-7.40;99.90
5881;DHT22;2966;52.598;10.928;2022-12-18T09:06:45;-7.30;99.90
5881;DHT22;2966;52.598;10.928;2022-12-18T09:09:12;-7.20;99.90
5881;DHT22;2966;52.598;10.928;2022-12-18T09:11:40;-7.10;99.90
5881;DHT22;2966;52.598;10.928;2022-12-18T09:14:07;-7.10;99.90
5881;DHT22;2966;52.598;10.928;2022-12-18T09:16:33;-7.00;99.90
5881;DHT22;2966;52.598;10.928;2022-12-18T09:19:02;-7.00;99.90
5881;DHT22;2966;52.598;10.928;2022-12-18T09:21:33;-6.90;99.90
5881;DHT22;2966;52.598;10.928;2022-12-18T09:24:01;-6.90;99.90
5881;DHT22;2966;52.598;10.928;2022-12-18T09:26:28;-6.80;99.90
5881;DHT22;2966;52.598;10.928;2022-12-18T09:28:55;-6.70;99.90
5881;DHT22;2966;52.598;10.928;2022-12-18T09:31:23;-6.70;99.90
5881;DHT22;2966;52.598;10.928;2022-12-18T09:33:51;-6.60;99.90
5881;DHT22;2966;52.598;10.928;2022-12-18T09:36:18;-6.50;99.90
5881;DHT22;2966;52.598;10.928;2022-12-18T09:38:45;-6.50;99.90
5881;DHT22;2966;52.598;10.928;2022-12-18T09:41:33;-6.40;99.90
5881;DHT22;2966;52.598;10.928;2022-12-18T09:44:09;-6.40;99.90
5881;DHT22;2966;52.598;10.928;2022-12-18T09:46:40;-6.30;99.90
5881;DHT22;2966;52.598;10.928;2022-12-18T09:49:13;-6.20;99.90
5881;DHT22;2966;52.598;10.928;2022-12-18T09:51:45;-6.20;99.90
5881;DHT22;2966;52.598;10.928;2022-12-18T09:54:15;-6.10;99.90
5881;DHT22;2966;52.598;10.928;2022-12-18T09:56:46;-6.10;99.90
5881;DHT22;2966;52.598;10.928;2022-12-18T09:59:21;-6.10;99.90
5881;DHT22;2966;52.598;10.928;2022-12-18T10:01:48;-6.10;99.90
5881;DHT22;2966;52.598;10.928;2022-12-18T10:04:15;-6.00;99.90
5881;DHT22;2966;52.598;10.928;2022-12-18T10:06:48;-6.00;99.90
5881;DHT22;2966;52.598;10.928;2022-12-18T10:09:24;-5.90;99.90
5881;DHT22;2966;52.598;10.928;2022-12-18T10:12:00;-5.80;99.90
5881;DHT22;2966;52.598;10.928;2022-12-18T10:14:34;-5.70;99.90
5881;DHT22;2966;52.598;10.928;2022-12-18T10:17:11;-5.80;99.90
5881;DHT22;2966;52.598;10.928;2022-12-18T10:19:43;-5.70;99.90
5881;DHT22;2966;52.598;10.928;2022-12-18T10:22:22;-5.70;99.90
5881;DHT22;2966;52.598;10.928;2022-12-18T10:24:58;-5.70;99.90
5881;DHT22;2966;52.598;10.928;2022-12-18T10:27:29;-5.60;99.90
5881;DHT22;2966;52.598;10.928;2022-12-18T10:29:57;-5.60;99.90
5881;DHT22;2966;52.598;10.928;2022-12-18T10:32:26;-5.60;99.90
5881;DHT22;2966;52.598;10.928;2022-12-18T10:34:55;-5.50;99.90
5881;DHT22;2966;52.598;10.928;2022-12-18T10:37:23;-5.50;99.90
5881;DHT22;2966;52.598;10.928;2022-12-18T10:40:07;-5.40;99.90
5881;DHT22;2966;52.598;10.928;2022-12-18T10:42:36;-5.40;99.90
5881;DHT22;2966;52.598;10.928;2022-12-18T10:45:09;-5.40;99.90
5881;DHT22;2966;52.598;10.928;2022-12-18T10:47:36;-5.30;99.90
5881;DHT22;2966;52.598;10.928;2022-12-18T10:50:19;-5.30;99.90
5881;DHT22;2966;52.598;10.928;2022-12-18T10:52:54;-5.20;99.90
5881;DHT22;2966;52.598;10.928;2022-12-18T10:55:21;-5.20;99.90
5881;DHT22;2966;52.598;10.928;2022-12-18T10:57:51;-5.20;99.90
5881;DHT22;2966;52.598;10.928;2022-12-18T11:00:26;-5.10;99.90
5881;DHT22;2966;52.598;10.928;2022-12-18T11:02:54;-5.10;99.90
5881;DHT22;2966;52.598;10.928;2022-12-18T11:05:27;-5.00;99.90
5881;DHT22;2966;52.598;10.928;2022-12-18T11:07:55;-5.00;99.90
5881;DHT22;2966;52.598;10.928;2022-12-18T11:10:28;-4.90;99.90
5881;DHT22;2966;52.598;10.928;2022-12-18T11:13:11;-4.90;99.90
5881;DHT22;2966;52.598;10.928;2022-12-18T11:15:40;-4.80;99.90
5881;DHT22;2966;52.598;10.928;2022-12-18T11:18:16;-4.80;99.90
5881;DHT22;2966;52.598;10.928;2022-12-18T11:20:50;-4.70;99.90
5881;DHT22;2966;52.598;10.928;2022-12-18T11:23:19;-4.60;99.90
5881;DHT22;2966;52.598;10.928;2022-12-18T11:25:53;-4.60;99.90
5881;DHT22;2966;52.598;10.928;2022-12-18T11:28:44;-4.60;99.90
5881;DHT22;2966;52.598;10.928;2022-12-18T11:31:24;-4.50;99.90
5881;DHT22;2966;52.598;10.928;2022-12-18T11:33:59;-4.50;99.90
5881;DHT22;2966;52.598;10.928;2022-12-18T11:36:31;-4.50;99.90
5881;DHT22;2966;52.598;10.928;2022-12-18T11:39:03;-4.50;99.90
5881;DHT22;2966;52.598;10.928;2022-12-18T11:41:36;-4.50;99.90
5881;DHT22;2966;52.598;10.928;2022-12-18T11:44:26;-4.40;99.90
5881;DHT22;2966;52.598;10.928;2022-12-18T11:46:59;-4.40;99.90
5881;DHT22;2966;52.598;10.928;2022-12-18T11:49:31;-4.30;99.90
5881;DHT22;2966;52.598;10.928;2022-12-18T11:52:03;-4.30;99.90
5881;DHT22;2966;52.598;10.928;2022-12-18T11:54:31;-4.20;99.90
5881;DHT22;2966;52.598;10.928;2022-12-18T11:57:03;-4.20;99.90
5881;DHT22;2966;52.598;10.928;2022-12-18T11:59:36;-4.10;99.90
5881;DHT22;2966;52.598;10.928;2022-12-18T12:02:21;-4.10;99.90
5881;DHT22;2966;52.598;10.928;2022-12-18T12:05:09;-4.00;99.90
5881;DHT22;2966;52.598;10.928;2022-12-18T12:07:46;-3.90;99.90
5881;DHT22;2966;52.598;10.928;2022-12-18T12:10:28;-3.80;99.90
5881;DHT22;2966;52.598;10.928;2022-12-18T12:13:16;-3.80;99.90
5881;DHT22;2966;52.598;10.928;2022-12-18T12:15:51;-3.70;99.90
5881;DHT22;2966;52.598;10.928;2022-12-18T12:18:31;-3.70;99.90
5881;DHT22;2966;52.598;10.928;2022-12-18T12:21:04;-3.70;99.90
5881;DHT22;2966;52.598;10.928;2022-12-18T12:23:39;-3.70;99.90
5881;DHT22;2966;52.598;10.928;2022-12-18T12:26:11;-3.70;99.90
5881;DHT22;2966;52.598;10.928;2022-12-18T12:28:59;-3.70;99.90
5881;DHT22;2966;52.598;10.928;2022-12-18T12:31:38;-3.70;99.90
5881;DHT22;2966;52.598;10.928;2022-12-18T12:34:15;-3.70;99.90
5881;DHT22;2966;52.598;10.928;2022-12-18T12:36:54;-3.70;99.90
5881;DHT22;2966;52.598;10.928;2022-12-18T12:39:24;-3.70;99.90
5881;DHT22;2966;52.598;10.928;2022-12-18T12:41:54;-3.70;99.90
5881;DHT22;2966;52.598;10.928;2022-12-18T12:44:42;-3.60;99.90
5881;DHT22;2966;52.598;10.928;2022-12-18T12:47:14;-3.60;99.90
5881;DHT22;2966;52.598;10.928;2022-12-18T12:49:43;-3.60;99.90
5881;DHT22;2966;52.598;10.928;2022-12-18T12:52:15;-3.60;99.90
5881;DHT22;2966;52.598;10.928;2022-12-18T12:54:43;-3.50;99.90
5881;DHT22;2966;52.598;10.928;2022-12-18T12:57:15;-3.40;99.90
5881;DHT22;2966;52.598;10.928;2022-12-18T12:59:52;-3.40;99.90
5881;DHT22;2966;52.598;10.928;2022-12-18T13:02:32;-3.40;99.90
5881;DHT22;2966;52.598;10.928;2022-12-18T13:05:04;-3.30;99.90
5881;DHT22;2966;52.598;10.928;2022-12-18T13:07:39;-3.30;99.90
5881;DHT22;2966;52.598;10.928;2022-12-18T13:10:39;-3.20;99.90
5881;DHT22;2966;52.598;10.928;2022-12-18T13:13:08;-3.20;99.90
5881;DHT22;2966;52.598;10.928;2022-12-18T13:15:39;-3.20;99.90
5881;DHT22;2966;52.598;10.928;2022-12-18T13:18:17;-3.20;99.90
5881;DHT22;2966;52.598;10.928;2022-12-18T13:20:47;-3.20;99.90
5881;DHT22;2966;52.598;10.928;2022-12-18T13:23:32;-3.20;99.90
5881;DHT22;2966;52.598;10.928;2022-12-18T13:26:00;-3.20;99.90
5881;DHT22;2966;52.598;10.928;2022-12-18T13:28:52;-3.20;99.90
5881;DHT22;2966;52.598;10.928;2022-12-18T13:31:57;-3.30;99.90
5881;DHT22;2966;52.598;10.928;2022-12-18T13:34:27;-3.40;99.90
5881;DHT22;2966;52.598;10.928;2022-12-18T13:36:56;-3.40;99.90
5881;DHT22;2966;52.598;10.928;2022-12-18T13:39:31;-3.50;99.90
5881;DHT22;2966;52.598;10.928;2022-12-18T13:45:42;-3.50;99.90
5881;DHT22;2966;52.598;10.928;2022-12-18T13:48:22;-3.50;99.90
5881;DHT22;2966;52.598;10.928;2022-12-18T13:50:57;-3.60;99.90
5881;DHT22;2966;52.598;10.928;2022-12-18T13:53:28;-3.60;99.90
5881;DHT22;2966;52.598;10.928;2022-12-18T13:55:56;-3.60;99.90
5881;DHT22;2966;52.598;10.928;2022-12-18T13:58:23;-3.70;99.90
5881;DHT22;2966;52.598;10.928;2022-12-18T14:00:50;-3.70;99.90
5881;DHT22;2966;52.598;10.928;2022-12-18T14:03:20;-3.70;99.90
5881;DHT22;2966;52.598;10.928;2022-12-18T14:05:54;-3.80;99.90
5881;DHT22;2966;52.598;10.928;2022-12-18T14:08:21;-3.80;99.90
5881;DHT22;2966;52.598;10.928;2022-12-18T14:10:51;-3.90;99.90
5881;DHT22;2966;52.598;10.928;2022-12-18T14:13:24;-4.00;99.90
5881;DHT22;2966;52.598;10.928;2022-12-18T14:15:54;-4.00;99.90
5881;DHT22;2966;52.598;10.928;2022-12-18T14:18:23;-4.00;99.90
5881;DHT22;2966;52.598;10.928;2022-12-18T14:20:54;-4.10;99.90
5881;DHT22;2966;52.598;10.928;2022-12-18T14:23:30;-4.10;99.90
5881;DHT22;2966;52.598;10.928;2022-12-18T14:25:57;-4.10;99.90
5881;DHT22;2966;52.598;10.928;2022-12-18T14:28:24;-4.20;99.90
5881;DHT22;2966;52.598;10.928;2022-12-18T14:30:52;-4.20;99.90
5881;DHT22;2966;52.598;10.928;2022-12-18T14:33:22;-4.20;99.90
5881;DHT22;2966;52.598;10.928;2022-12-18T14:35:56;-4.20;99.90
5881;DHT22;2966;52.598;10.928;2022-12-18T14:38:26;-4.30;99.90
5881;DHT22;2966;52.598;10.928;2022-12-18T14:40:55;-4.30;99.90
5881;DHT22;2966;52.598;10.928;2022-12-18T14:43:22;-4.30;99.90
5881;DHT22;2966;52.598;10.928;2022-12-18T14:45:50;-4.30;99.90
5881;DHT22;2966;52.598;10.928;2022-12-18T14:48:19;-4.40;99.90
5881;DHT22;2966;52.598;10.928;2022-12-18T14:50:57;-4.40;99.90
5881;DHT22;2966;52.598;10.928;2022-12-18T14:53:33;-4.40;99.90
5881;DHT22;2966;52.598;10.928;2022-12-18T14:56:01;-4.40;99.90
5881;DHT22;2966;52.598;10.928;2022-12-18T14:58:28;-4.50;99.90
5881;DHT22;2966;52.598;10.928;2022-12-18T15:00:55;-4.50;99.90
5881;DHT22;2966;52.598;10.928;2022-12-18T15:03:22;-4.50;99.90
5881;DHT22;2966;52.598;10.928;2022-12-18T15:05:49;-4.50;99.90
5881;DHT22;2966;52.598;10.928;2022-12-18T15:08:31;-4.50;99.90
5881;DHT22;2966;52.598;10.928;2022-12-18T15:11:01;-4.50;99.90
5881;DHT22;2966;52.598;10.928;2022-12-18T15:13:28;-4.50;99.90
5881;DHT22;2966;52.598;10.928;2022-12-18T15:15:55;-4.60;99.90
5881;DHT22;2966;52.598;10.928;2022-12-18T15:18:28;-4.60;99.90
5881;DHT22;2966;52.598;10.928;2022-12-18T15:20:57;-4.60;99.90
5881;DHT22;2966;52.598;10.928;2022-12-18T15:23:30;-4.60;99.90
5881;DHT22;2966;52.598;10.928;2022-12-18T15:26:01;-4.60;99.90
5881;DHT22;2966;52.598;10.928;2022-12-18T15:28:36;-4.70;99.90
5881;DHT22;2966;52.598;10.928;2022-12-18T15:31:06;-4.70;99.90
5881;DHT22;2966;52.598;10.928;2022-12-18T15:33:34;-4.70;99.90
5881;DHT22;2966;52.598;10.928;2022-12-18T15:36:03;-4.70;99.90
5881;DHT22;2966;52.598;10.928;2022-12-18T15:38:32;-4.80;99.90
5881;DHT22;2966;52.598;10.928;2022-12-18T15:40:59;-4.80;99.90
5881;DHT22;2966;52.598;10.928;2022-12-18T15:43:26;-4.80;99.90
5881;DHT22;2966;52.598;10.928;2022-12-18T15:46:03;-4.80;99.90
5881;DHT22;2966;52.598;10.928;2022-12-18T15:48:32;-4.80;99.90
5881;DHT22;2966;52.598;10.928;2022-12-18T15:51:00;-4.80;99.90
5881;DHT22;2966;52.598;10.928;2022-12-18T15:53:32;-4.90;99.90
5881;DHT22;2966;52.598;10.928;2022-12-18T15:55:59;-4.90;99.90
5881;DHT22;2966;52.598;10.928;2022-12-18T15:58:44;-4.90;99.90
5881;DHT22;2966;52.598;10.928;2022-12-18T16:01:11;-4.90;99.90
5881;DHT22;2966;52.598;10.928;2022-12-18T16:03:38;-4.90;99.90
5881;DHT22;2966;52.598;10.928;2022-12-18T16:06:06;-4.90;99.90
5881;DHT22;2966;52.598;10.928;2022-12-18T16:08:34;-4.90;99.90
5881;DHT22;2966;52.598;10.928;2022-12-18T16:11:01;-4.90;99.90
5881;DHT22;2966;52.598;10.928;2022-12-18T16:13:28;-5.00;99.90